createdAt,value
2019-01-23T00:02:23.257Z,-1.01
2019-01-23T00:04:55.436Z,-0.88
2019-01-23T00:07:27.442Z,-0.98
2019-01-23T00:09:59.401Z,-1.01
2019-01-23T00:12:31.390Z,-1.12
2019-01-23T00:15:03.799Z,-0.93
2019-01-23T00:17:36.279Z,-0.87
2019-01-23T00:20:08.256Z,-0.82
2019-01-23T00:22:42.057Z,-0.79
2019-01-23T00:25:14.044Z,-0.88
2019-01-23T00:27:46.052Z,-0.85
2019-01-23T00:30:18.008Z,-1.01
2019-01-23T00:32:49.998Z,-0.91
2019-01-23T00:35:21.978Z,-0.82
2019-01-23T00:37:53.979Z,-0.89
2019-01-23T00:40:25.968Z,-0.88
2019-01-23T00:42:57.939Z,-0.67
2019-01-23T00:45:30.025Z,-0.64
2019-01-23T00:48:01.993Z,-0.89
2019-01-23T00:50:33.971Z,-0.87
2019-01-23T00:53:05.973Z,-0.91
2019-01-23T00:55:37.968Z,-0.87
2019-01-23T00:58:09.948Z,-0.83
2019-01-23T01:00:41.919Z,-1.05
2019-01-23T01:03:13.889Z,-0.89
2019-01-23T01:05:45.875Z,-0.92
2019-01-23T01:08:17.833Z,-0.85
2019-01-23T01:10:49.833Z,-0.88
2019-01-23T01:13:21.819Z,-0.75
2019-01-23T01:15:53.786Z,-0.74
2019-01-23T01:18:25.786Z,-0.57
2019-01-23T01:20:57.775Z,-0.61
2019-01-23T01:23:29.760Z,-0.65
2019-01-23T01:26:01.833Z,-0.78
2019-01-23T01:28:33.885Z,-0.80
2019-01-23T01:31:05.840Z,-0.82
2019-01-23T01:33:37.794Z,-0.73
2019-01-23T01:36:09.775Z,-0.64
2019-01-23T01:38:41.987Z,-0.64
2019-01-23T01:41:13.983Z,-0.71
2019-01-23T01:43:45.948Z,-0.79
2019-01-23T01:46:17.940Z,-0.78
2019-01-23T01:48:49.903Z,-0.62
2019-01-23T01:51:21.918Z,-0.73
2019-01-23T01:53:53.871Z,-0.65
2019-01-23T01:56:25.849Z,-0.96
2019-01-23T01:59:02.722Z,-0.83
2019-01-23T02:01:31.724Z,-0.76
2019-01-23T02:04:03.701Z,-0.97
2019-01-23T02:06:35.708Z,-1.05
2019-01-23T02:09:10.886Z,-0.88
2019-01-23T02:11:42.872Z,-1.07
2019-01-23T02:14:14.854Z,-1.14
2019-01-23T02:16:46.897Z,-0.84
2019-01-23T02:19:18.802Z,-1.05
2019-01-23T02:21:50.833Z,-1.15
2019-01-23T02:24:22.809Z,-1.02
2019-01-23T02:26:54.783Z,-0.78
2019-01-23T02:29:26.774Z,-0.96
2019-01-23T02:31:58.756Z,-0.96
2019-01-23T02:34:30.751Z,-1.17
2019-01-23T02:37:02.716Z,-1.40
2019-01-23T02:39:34.718Z,-1.43
2019-01-23T02:42:06.678Z,-1.29
2019-01-23T02:44:38.657Z,-1.03
2019-01-23T02:47:10.608Z,-1.24
2019-01-23T02:49:42.618Z,-1.04
2019-01-23T02:52:14.571Z,-1.32
2019-01-23T02:54:46.550Z,-1.23
2019-01-23T02:57:18.505Z,-1.23
2019-01-23T02:59:50.481Z,-1.24
2019-01-23T03:02:22.465Z,-1.05
2019-01-23T03:04:54.471Z,-1.38
2019-01-23T03:07:26.456Z,-1.21
2019-01-23T03:09:58.440Z,-1.09
2019-01-23T03:12:30.406Z,-1.15
2019-01-23T03:15:02.584Z,-1.14
2019-01-23T03:17:34.613Z,-1.08
2019-01-23T03:20:08.618Z,-1.31
2019-01-23T03:22:40.607Z,-1.18
2019-01-23T03:25:12.968Z,-1.04
2019-01-23T03:27:44.951Z,-1.13
2019-01-23T03:30:18.815Z,-1.19
2019-01-23T03:32:50.823Z,-1.10
2019-01-23T03:35:22.811Z,-1.09
2019-01-23T03:37:54.765Z,-0.99
2019-01-23T03:40:26.737Z,-0.99
2019-01-23T03:42:58.713Z,-1.11
2019-01-23T03:45:30.687Z,-1.12
2019-01-23T03:48:02.643Z,-1.31
2019-01-23T03:50:34.636Z,-1.15
2019-01-23T03:53:06.584Z,-1.24
2019-01-23T03:55:38.563Z,-1.30
2019-01-23T03:58:10.537Z,-1.28
2019-01-23T04:00:42.634Z,-1.15
2019-01-23T04:03:14.566Z,-1.21
2019-01-23T04:05:46.604Z,-1.20
2019-01-23T04:08:18.556Z,-1.13
2019-01-23T04:10:50.531Z,-1.23
2019-01-23T04:13:22.496Z,-1.08
2019-01-23T04:15:54.468Z,-1.20
2019-01-23T04:18:26.448Z,-1.23
2019-01-23T04:20:58.436Z,-1.44
2019-01-23T04:23:30.400Z,-1.36
2019-01-23T04:26:02.393Z,-1.33
2019-01-23T04:28:34.368Z,-1.27
2019-01-23T04:31:06.342Z,-1.28
2019-01-23T04:33:38.373Z,-1.34
2019-01-23T04:36:10.331Z,-1.29
2019-01-23T04:38:42.322Z,-1.22
2019-01-23T04:41:14.271Z,-1.30
2019-01-23T04:43:46.298Z,-1.34
2019-01-23T04:46:18.280Z,-1.26
2019-01-23T04:48:50.275Z,-1.42
2019-01-23T04:51:41.854Z,-1.41
2019-01-23T04:54:15.942Z,-1.51
2019-01-23T04:56:47.919Z,-1.43
2019-01-23T04:59:19.920Z,-1.40
2019-01-23T05:01:51.868Z,-1.51
2019-01-23T05:04:23.839Z,-1.50
2019-01-23T05:06:55.840Z,-1.60
2019-01-23T05:09:27.835Z,-1.46
2019-01-23T05:11:59.802Z,-1.57
2019-01-23T05:14:31.792Z,-1.50
2019-01-23T05:17:03.740Z,-1.65
2019-01-23T05:19:35.752Z,-1.69
2019-01-23T05:22:07.736Z,-1.49
2019-01-23T05:24:39.728Z,-1.60
2019-01-23T05:27:11.719Z,-1.53
2019-01-23T05:29:43.707Z,-1.46
2019-01-23T05:32:15.693Z,-1.51
2019-01-23T05:34:47.680Z,-1.73
2019-01-23T05:37:19.639Z,-1.60
2019-01-23T05:39:51.612Z,-1.64
2019-01-23T05:42:23.601Z,-1.63
2019-01-23T05:44:55.594Z,-1.62
2019-01-23T05:47:27.590Z,-1.54
2019-01-23T05:49:59.561Z,-1.53
2019-01-23T05:52:31.602Z,-1.53
2019-01-23T05:55:04.269Z,-1.56
2019-01-23T05:57:36.269Z,-1.73
2019-01-23T06:00:11.097Z,-1.66
2019-01-23T06:02:43.104Z,-1.58
2019-01-23T06:05:15.558Z,-1.71
2019-01-23T06:07:47.549Z,-1.69
2019-01-23T06:10:19.519Z,-1.59
2019-01-23T06:12:54.007Z,-1.56
2019-01-23T06:15:25.946Z,-1.68
2019-01-23T06:17:57.935Z,-1.44
2019-01-23T06:20:29.884Z,-1.53
2019-01-23T06:23:01.853Z,-1.63
2019-01-23T06:25:33.824Z,-1.59
2019-01-23T06:28:05.825Z,-1.59
2019-01-23T06:30:37.913Z,-1.69
2019-01-23T06:33:09.900Z,-1.66
2019-01-23T06:35:41.886Z,-1.57
2019-01-23T06:38:13.902Z,-1.59
2019-01-23T06:40:45.860Z,-1.60
2019-01-23T06:43:17.841Z,-1.71
2019-01-23T06:45:49.819Z,-1.62
2019-01-23T06:48:21.838Z,-1.44
2019-01-23T06:50:53.821Z,-1.48
2019-01-23T06:53:25.812Z,-1.59
2019-01-23T06:55:57.840Z,-1.63
2019-01-23T06:58:29.830Z,-1.40
2019-01-23T07:01:01.797Z,-1.79
2019-01-23T07:03:33.779Z,-1.66
2019-01-23T07:06:05.773Z,-1.67
2019-01-23T07:08:37.752Z,-1.66
2019-01-23T07:11:09.726Z,-1.55
2019-01-23T07:13:41.731Z,-1.48
2019-01-23T07:16:13.690Z,-1.57
2019-01-23T07:18:45.997Z,-1.63
2019-01-23T07:21:19.230Z,-1.60
2019-01-23T07:23:51.639Z,-1.63
2019-01-23T07:26:23.618Z,-1.69
2019-01-23T07:28:55.673Z,-1.73
2019-01-23T07:31:29.465Z,-1.88
2019-01-23T07:34:01.441Z,-1.85
2019-01-23T07:36:39.777Z,-1.87
2019-01-23T07:39:09.367Z,-1.76
2019-01-23T07:41:41.356Z,-1.71
2019-01-23T07:44:13.360Z,-1.69
2019-01-23T07:46:45.379Z,-1.73
2019-01-23T07:49:17.335Z,-1.70
2019-01-23T07:51:49.333Z,-1.78
2019-01-23T07:54:21.299Z,-1.79
2019-01-23T07:56:53.283Z,-1.67
2019-01-23T07:59:25.245Z,-1.71
2019-01-23T08:01:57.468Z,-1.79
2019-01-23T08:04:30.647Z,-1.88
2019-01-23T08:07:02.707Z,-1.82
2019-01-23T08:09:34.674Z,-1.83
2019-01-23T08:12:10.641Z,-1.84
2019-01-23T08:14:41.947Z,-1.81
2019-01-23T08:17:14.237Z,-1.77
2019-01-23T08:19:46.230Z,-1.55
2019-01-23T08:22:18.269Z,-1.59
2019-01-23T08:24:50.195Z,-1.65
2019-01-23T08:27:22.188Z,-1.52
2019-01-23T08:29:54.170Z,-1.53
2019-01-23T08:32:26.178Z,-1.53
2019-01-23T08:34:59.052Z,-1.34
2019-01-23T08:37:31.072Z,-1.43
2019-01-23T08:40:04.541Z,-1.38
2019-01-23T08:42:36.532Z,-1.51
2019-01-23T08:45:09.407Z,-1.26
2019-01-23T08:47:41.483Z,-1.30
2019-01-23T08:50:34.826Z,-1.39
2019-01-23T08:53:07.033Z,-1.15
2019-01-23T08:55:38.980Z,-1.05
2019-01-23T08:58:11.105Z,-1.11
2019-01-23T09:00:45.925Z,-1.08
2019-01-23T09:03:17.051Z,-0.97
2019-01-23T09:05:49.129Z,-1.04
2019-01-23T09:08:21.107Z,-0.97
2019-01-23T09:10:53.086Z,-1.12
2019-01-23T09:13:25.071Z,-0.82
2019-01-23T09:15:57.052Z,-0.80
2019-01-23T09:18:29.132Z,-0.91
2019-01-23T09:21:01.161Z,-0.85
2019-01-23T09:23:33.176Z,-0.76
2019-01-23T09:26:05.136Z,-0.66
2019-01-23T09:28:37.176Z,-0.56
2019-01-23T09:31:17.500Z,-0.55
2019-01-23T09:34:18.642Z,-0.39
2019-01-23T09:37:08.928Z,-0.22
2019-01-23T09:40:11.012Z,-0.19
2019-01-23T09:43:43.037Z,-0.31
2019-01-23T09:46:43.787Z,-0.47
2019-01-23T09:49:47.183Z,-0.26
2019-01-23T09:53:10.450Z,-0.14
2019-01-23T09:55:42.428Z,-0.47
2019-01-23T09:58:14.455Z,-0.55
2019-01-23T10:00:48.269Z,-0.39
2019-01-23T10:03:23.149Z,-0.18
2019-01-23T10:05:55.367Z,-0.27
2019-01-23T10:08:27.340Z,-0.18
2019-01-23T10:10:59.390Z,-0.04
2019-01-23T10:13:31.372Z,0.05
2019-01-23T10:16:12.954Z,0.10
2019-01-23T10:18:44.934Z,0.08
2019-01-23T10:21:17.064Z,0.28
2019-01-23T10:23:49.035Z,0.41
2019-01-23T10:26:21.166Z,0.29
2019-01-23T10:28:53.162Z,0.27
2019-01-23T10:31:25.168Z,0.10
2019-01-23T10:33:57.139Z,0.10
2019-01-23T10:36:29.158Z,0.05
2019-01-23T10:39:01.106Z,0.29
2019-01-23T10:41:33.091Z,0.41
2019-01-23T10:44:05.089Z,0.52
2019-01-23T10:46:37.099Z,0.51
2019-01-23T10:49:09.069Z,0.55
2019-01-23T10:51:41.105Z,0.47
2019-01-23T10:54:13.121Z,0.30
2019-01-23T10:56:45.130Z,0.45
2019-01-23T10:59:17.111Z,0.45
2019-01-23T11:01:49.113Z,0.46
2019-01-23T11:04:21.225Z,0.45
2019-01-23T11:06:53.240Z,0.48
2019-01-23T11:09:25.341Z,0.72
2019-01-23T11:11:57.451Z,0.47
2019-01-23T11:14:29.474Z,0.74
2019-01-23T11:17:22.873Z,0.63
2019-01-23T11:19:54.837Z,0.62
2019-01-23T11:22:26.859Z,0.48
2019-01-23T11:24:58.872Z,0.69
2019-01-23T11:27:30.913Z,0.41
2019-01-23T11:30:43.713Z,0.50
2019-01-23T11:33:15.779Z,0.59
2019-01-23T11:35:47.767Z,0.72
2019-01-23T11:38:19.797Z,0.67
2019-01-23T11:40:51.777Z,0.67
2019-01-23T11:43:23.803Z,0.72
2019-01-23T11:45:55.827Z,0.82
2019-01-23T11:48:27.921Z,0.77
2019-01-23T11:50:59.921Z,0.85
2019-01-23T11:53:31.921Z,1.05
2019-01-23T11:59:17.080Z,0.91
2019-01-23T12:01:49.041Z,0.85
2019-01-23T12:04:21.096Z,1.07
2019-01-23T12:06:53.434Z,1.21
2019-01-23T12:09:25.419Z,1.15
2019-01-23T12:11:57.434Z,0.95
2019-01-23T12:14:29.460Z,0.96
2019-01-23T12:17:01.445Z,0.90
2019-01-23T12:19:33.480Z,0.97
2019-01-23T12:22:05.495Z,1.06
2019-01-23T12:24:37.528Z,1.17
2019-01-23T12:27:09.546Z,1.27
2019-01-23T12:29:41.593Z,1.41
2019-01-23T12:32:13.613Z,1.42
2019-01-23T12:34:45.630Z,1.38
2019-01-23T12:37:17.627Z,1.51
2019-01-23T12:39:49.654Z,1.60
2019-01-23T12:42:21.712Z,1.30
2019-01-23T12:44:53.700Z,1.42
2019-01-23T12:47:25.695Z,1.61
2019-01-23T12:49:57.675Z,1.55
2019-01-23T12:52:29.663Z,1.68
2019-01-23T12:55:01.662Z,1.69
2019-01-23T12:57:33.822Z,1.79
2019-01-23T13:00:09.017Z,1.64
2019-01-23T13:02:41.040Z,1.42
2019-01-23T13:05:16.036Z,1.08
2019-01-23T13:07:48.060Z,0.98
2019-01-23T13:10:20.508Z,1.33
2019-01-23T13:12:53.355Z,1.25
2019-01-23T13:15:25.726Z,1.25
2019-01-23T13:17:57.741Z,1.30
2019-01-23T13:20:29.745Z,1.34
2019-01-23T13:23:01.763Z,1.44
2019-01-23T13:25:33.752Z,1.33
2019-01-23T13:28:06.094Z,1.34
2019-01-23T13:30:38.133Z,1.22
2019-01-23T13:33:10.142Z,0.95
2019-01-23T13:35:42.160Z,1.30
2019-01-23T13:38:16.323Z,1.35
2019-01-23T13:40:48.330Z,1.26
2019-01-23T13:43:20.409Z,1.16
2019-01-23T13:45:52.447Z,1.09
2019-01-23T13:48:24.464Z,1.16
2019-01-23T13:50:56.480Z,1.05
2019-01-23T13:53:28.566Z,1.02
2019-01-23T13:56:00.569Z,1.06
2019-01-23T13:58:32.572Z,1.14
2019-01-23T14:01:05.000Z,1.24
2019-01-23T14:03:36.991Z,1.13
2019-01-23T14:06:09.017Z,0.98
2019-01-23T14:08:41.033Z,1.07
2019-01-23T14:11:13.077Z,0.83
2019-01-23T14:13:45.072Z,0.82
2019-01-23T14:16:17.120Z,0.81
2019-01-23T14:18:49.150Z,0.76
2019-01-23T14:21:21.233Z,0.82
2019-01-23T14:23:53.284Z,0.78
2019-01-23T14:26:25.309Z,0.97
2019-01-23T14:28:57.302Z,0.86
2019-01-23T14:31:29.333Z,0.84
2019-01-23T14:34:01.337Z,0.86
2019-01-23T14:36:33.385Z,0.97
2019-01-23T14:39:06.754Z,0.78
2019-01-23T14:41:38.808Z,0.72
2019-01-23T14:44:10.791Z,0.77
2019-01-23T14:46:42.808Z,0.77
2019-01-23T14:49:14.829Z,0.83
2019-01-23T14:51:46.873Z,0.90
2019-01-23T14:54:18.945Z,0.72
2019-01-23T14:56:50.981Z,0.67
2019-01-23T14:59:23.015Z,0.75
2019-01-23T15:01:55.096Z,0.73
2019-01-23T15:04:27.084Z,0.52
2019-01-23T15:06:59.126Z,0.43
2019-01-23T15:09:31.141Z,0.29
2019-01-23T15:12:03.151Z,0.41
2019-01-23T15:14:35.183Z,0.54
2019-01-23T15:17:07.209Z,0.52
2019-01-23T15:19:39.300Z,0.43
2019-01-23T15:22:11.346Z,0.36
2019-01-23T15:24:43.384Z,0.34
2019-01-23T15:27:15.388Z,0.38
2019-01-23T15:29:47.434Z,0.18
2019-01-23T15:32:19.453Z,0.26
2019-01-23T15:34:51.456Z,0.25
2019-01-23T15:37:23.466Z,0.27
2019-01-23T15:39:55.547Z,0.20
2019-01-23T15:42:27.556Z,0.09
2019-01-23T15:44:59.570Z,-0.01
2019-01-23T15:47:31.673Z,0.09
2019-01-23T15:50:05.446Z,0.09
2019-01-23T15:52:37.511Z,-0.23
2019-01-23T15:55:11.906Z,-0.19
2019-01-23T15:57:43.923Z,-0.12
2019-01-23T16:00:27.618Z,-0.32
2019-01-23T16:02:59.642Z,-0.46
2019-01-23T16:05:31.658Z,-0.37
2019-01-23T16:08:03.884Z,-0.09
2019-01-23T16:10:35.907Z,-0.14
2019-01-23T16:13:07.923Z,-0.27
2019-01-23T16:15:39.981Z,-0.33
2019-01-23T16:18:12.025Z,-0.40
2019-01-23T16:20:44.274Z,-0.21
2019-01-23T16:23:16.370Z,-0.31
2019-01-23T16:25:48.469Z,-0.38
2019-01-23T16:28:20.463Z,-0.44
2019-01-23T16:30:52.809Z,-0.41
2019-01-23T16:33:24.821Z,-0.40
2019-01-23T16:35:59.784Z,-0.36
2019-01-23T16:38:32.019Z,-0.38
2019-01-23T16:41:04.147Z,-0.46
2019-01-23T16:43:36.194Z,-0.55
2019-01-23T16:46:08.248Z,-0.48
2019-01-23T16:48:40.393Z,-0.43
2019-01-23T16:51:12.533Z,-0.48
2019-01-23T16:53:44.540Z,-0.61
2019-01-23T16:56:16.642Z,-0.55
2019-01-23T16:58:48.735Z,-0.53
2019-01-23T17:01:20.827Z,-0.42
2019-01-23T17:03:53.108Z,-0.69
2019-01-23T17:06:25.145Z,-0.62
2019-01-23T17:08:57.228Z,-0.72
2019-01-23T17:11:29.311Z,-0.75
2019-01-23T17:14:01.369Z,-0.64
2019-01-23T17:16:33.430Z,-0.69
2019-01-23T17:19:05.532Z,-0.73
2019-01-23T17:21:37.666Z,-0.75
2019-01-23T17:24:09.718Z,-0.72
2019-01-23T17:26:41.784Z,-0.76
2019-01-23T17:29:15.342Z,-0.76
2019-01-23T17:31:47.590Z,-0.71
2019-01-23T17:34:19.606Z,-0.55
2019-01-23T17:36:51.628Z,-0.57
2019-01-23T17:39:23.705Z,-0.62
2019-01-23T17:41:55.710Z,-0.68
2019-01-23T17:44:27.792Z,-0.55
2019-01-23T17:47:00.222Z,-0.64
2019-01-23T17:49:32.441Z,-0.69
2019-01-23T17:52:04.622Z,-0.62
2019-01-23T17:54:36.800Z,-0.65
2019-01-23T17:57:08.958Z,-0.63
2019-01-23T17:59:41.002Z,-0.64
2019-01-23T18:02:12.995Z,-0.57
2019-01-23T18:04:45.069Z,-0.59
2019-01-23T18:07:17.111Z,-0.54
2019-01-23T18:09:49.241Z,-0.45
2019-01-23T18:12:21.293Z,-0.50
2019-01-23T18:14:53.385Z,-0.55
2019-01-23T18:17:25.413Z,-0.72
2019-01-23T18:19:57.562Z,-0.59
2019-01-23T18:22:29.607Z,-0.70
2019-01-23T18:25:01.753Z,-0.65
2019-01-23T18:27:33.991Z,-0.72
2019-01-23T18:30:10.899Z,-0.65
2019-01-23T18:32:42.920Z,-0.71
2019-01-23T18:35:43.929Z,-0.73
2019-01-23T18:38:29.399Z,-0.65
2019-01-23T18:41:36.779Z,-0.72
2019-01-23T18:44:20.857Z,-0.71
2019-01-23T18:47:09.569Z,-0.82
2019-01-23T18:50:26.750Z,-0.76
2019-01-23T18:52:58.906Z,-0.78
2019-01-23T18:55:30.981Z,-0.80
2019-01-23T18:58:03.301Z,-0.90
2019-01-23T19:00:35.461Z,-0.79
2019-01-23T19:03:07.603Z,-0.78
2019-01-23T19:05:39.670Z,-0.72
2019-01-23T19:08:13.462Z,-0.49
2019-01-23T19:10:45.585Z,-0.70
2019-01-23T19:13:17.677Z,-0.78
2019-01-23T19:15:49.823Z,-0.87
2019-01-23T19:18:21.924Z,-0.87
2019-01-23T19:20:53.980Z,-0.83
2019-01-23T19:23:26.133Z,-0.71
2019-01-23T19:25:58.281Z,-0.66
2019-01-23T19:28:30.308Z,-0.64
2019-01-23T19:31:04.148Z,-0.71
2019-01-23T19:33:36.723Z,-0.71
2019-01-23T19:36:08.783Z,-0.70
2019-01-23T19:38:40.980Z,-0.79
2019-01-23T19:41:13.162Z,-0.67
2019-01-23T19:43:45.315Z,-0.69
2019-01-23T19:46:17.464Z,-0.69
2019-01-23T19:48:50.428Z,-0.77
2019-01-23T19:51:22.492Z,-0.74
2019-01-23T19:53:54.603Z,-0.69
2019-01-23T19:56:26.724Z,-0.76
2019-01-23T19:58:58.858Z,-0.77
2019-01-23T20:01:30.900Z,-0.93
2019-01-23T20:04:03.204Z,-1.08
2019-01-23T20:06:35.435Z,-1.00
2019-01-23T20:09:09.245Z,-0.87
2019-01-23T20:11:41.409Z,-0.94
2019-01-23T20:14:13.559Z,-0.89
2019-01-23T20:16:45.592Z,-0.97
2019-01-23T20:19:17.733Z,-0.98
2019-01-23T20:21:49.779Z,-0.95
2019-01-23T20:24:22.455Z,-0.97
2019-01-23T20:26:54.470Z,-0.99
2019-01-23T20:29:26.684Z,-0.98
2019-01-23T20:31:58.701Z,-0.97
2019-01-23T20:34:30.949Z,-0.94
2019-01-23T20:37:03.101Z,-1.00
2019-01-23T20:39:35.165Z,-0.99
2019-01-23T20:42:07.325Z,-1.00
2019-01-23T20:44:39.545Z,-1.05
2019-01-23T20:47:11.582Z,-1.00
2019-01-23T20:49:43.730Z,-0.99
2019-01-23T20:52:15.843Z,-1.05
2019-01-23T20:54:47.952Z,-1.10
2019-01-23T20:57:19.961Z,-1.12
2019-01-23T20:59:52.152Z,-1.07
2019-01-23T21:02:24.145Z,-1.12
2019-01-23T21:04:56.187Z,-1.12
2019-01-23T21:07:28.362Z,-1.18
2019-01-23T21:10:00.419Z,-1.14
2019-01-23T21:12:32.468Z,-1.08
2019-01-23T21:15:05.154Z,-1.07
2019-01-23T21:17:37.408Z,-1.08
2019-01-23T21:20:09.657Z,-1.06
2019-01-23T21:22:41.660Z,-1.05
2019-01-23T21:25:14.134Z,-1.01
2019-01-23T21:27:46.155Z,-1.03
2019-01-23T21:30:20.874Z,-1.01
2019-01-23T21:32:52.969Z,-0.99
2019-01-23T21:35:24.958Z,-0.99
2019-01-23T21:37:57.089Z,-0.93
2019-01-23T21:40:30.830Z,-0.96
2019-01-23T21:43:02.968Z,-0.95
2019-01-23T21:45:36.547Z,-1.01
2019-01-23T21:48:08.579Z,-0.97
2019-01-23T21:50:40.577Z,-1.04
2019-01-23T21:53:12.662Z,-1.04
2019-01-23T21:55:44.814Z,-1.04
2019-01-23T21:58:16.812Z,-1.04
2019-01-23T22:00:52.218Z,-1.02
2019-01-23T22:03:24.318Z,-1.01
2019-01-23T22:05:56.346Z,-1.14
2019-01-23T22:08:28.434Z,-1.18
2019-01-23T22:11:00.504Z,-1.22
2019-01-23T22:13:32.555Z,-1.18
2019-01-23T22:16:05.959Z,-1.17
2019-01-23T22:18:38.136Z,-1.11
2019-01-23T22:21:10.130Z,-0.93
2019-01-23T22:23:42.132Z,-1.21
2019-01-23T22:26:14.168Z,-1.30
2019-01-23T22:28:46.185Z,-1.32
2019-01-23T22:31:18.169Z,-1.39
2019-01-23T22:33:55.912Z,-1.45
2019-01-23T22:36:24.113Z,-1.28
2019-01-23T22:38:56.125Z,-1.43
2019-01-23T22:41:28.952Z,-1.49
2019-01-23T22:44:00.971Z,-1.44
2019-01-23T22:46:33.010Z,-1.44
2019-01-23T22:49:05.021Z,-1.43
2019-01-23T22:51:37.036Z,-1.41
2019-01-23T22:54:09.034Z,-1.38
2019-01-23T22:56:41.071Z,-1.40
2019-01-23T22:59:13.122Z,-1.36
2019-01-23T23:01:45.305Z,-1.29
2019-01-23T23:04:17.317Z,-1.31
2019-01-23T23:06:49.367Z,-1.28
2019-01-23T23:09:21.377Z,-1.24
2019-01-23T23:11:53.395Z,-1.28
2019-01-23T23:14:25.424Z,-1.30
2019-01-23T23:16:57.455Z,-1.30
2019-01-23T23:19:29.455Z,-1.28
2019-01-23T23:22:01.485Z,-1.37
2019-01-23T23:24:33.487Z,-1.44
2019-01-23T23:27:05.498Z,-1.45
2019-01-23T23:29:37.465Z,-1.53
2019-01-23T23:32:09.520Z,-1.55
2019-01-23T23:34:41.500Z,-1.53
2019-01-23T23:37:13.509Z,-1.59
2019-01-23T23:39:45.483Z,-1.57
2019-01-23T23:42:17.495Z,-1.53
2019-01-23T23:44:49.478Z,-1.48
2019-01-23T23:47:21.475Z,-1.52
2019-01-23T23:49:53.454Z,-1.51
2019-01-23T23:52:25.472Z,-1.52
2019-01-23T23:54:57.420Z,-1.57
2019-01-23T23:57:29.417Z,-1.59
